createdAt,value
2018-12-26T00:00:59.595Z,98691.41
2018-12-26T00:03:27.758Z,98690.06
2018-12-26T00:05:55.215Z,98684.38
2018-12-26T00:08:24.815Z,98685.09
2018-12-26T00:10:52.323Z,98688.91
2018-12-26T00:13:19.991Z,98687.99
2018-12-26T00:15:47.732Z,98686.62
2018-12-26T00:18:15.232Z,98680.58
2018-12-26T00:20:42.747Z,98683.28
2018-12-26T00:23:11.217Z,98685.94
2018-12-26T00:25:38.742Z,98694.73
2018-12-26T00:28:06.240Z,98695.63
2018-12-26T00:30:33.932Z,98685.28
2018-12-26T00:35:34.130Z,98691.70
2018-12-26T00:38:01.725Z,98686.53
2018-12-26T00:40:29.584Z,98691.67
2018-12-26T00:42:57.120Z,98682.20
2018-12-26T00:45:24.636Z,98680.92
2018-12-26T00:47:53.024Z,98682.24
2018-12-26T00:50:20.532Z,98679.96
2018-12-26T00:52:48.210Z,98682.16
2018-12-26T00:55:15.795Z,98679.59
2018-12-26T00:57:43.316Z,98678.84
2018-12-26T01:00:10.968Z,98680.61
2018-12-26T01:02:39.351Z,98675.77
2018-12-26T01:05:06.935Z,98681.79
2018-12-26T01:07:35.370Z,98675.25
2018-12-26T01:10:03.206Z,98686.89
2018-12-26T01:12:30.783Z,98680.33
2018-12-26T01:14:58.266Z,98682.09
2018-12-26T01:17:25.833Z,98685.69
2018-12-26T01:19:53.414Z,98681.02
2018-12-26T01:22:21.359Z,98679.80
2018-12-26T01:24:48.926Z,98680.29
2018-12-26T01:27:16.608Z,98685.03
2018-12-26T01:29:44.198Z,98687.12
2018-12-26T01:32:11.829Z,98686.75
2018-12-26T01:34:40.735Z,98684.91
2018-12-26T01:37:08.318Z,98691.48
2018-12-26T01:39:35.835Z,98689.81
2018-12-26T01:42:03.467Z,98683.28
2018-12-26T01:44:30.962Z,98672.84
2018-12-26T01:46:58.556Z,98680.22
2018-12-26T01:49:26.218Z,98682.95
2018-12-26T01:51:53.738Z,98682.04
2018-12-26T01:54:21.250Z,98682.02
2018-12-26T01:56:48.763Z,98693.66
2018-12-26T01:59:16.250Z,98688.91
2018-12-26T02:01:43.859Z,98683.75
2018-12-26T02:04:11.643Z,98678.49
2018-12-26T02:06:39.244Z,98684.97
2018-12-26T02:09:06.819Z,98682.86
2018-12-26T02:11:34.415Z,98682.05
2018-12-26T02:14:02.217Z,98677.64
2018-12-26T02:16:29.713Z,98678.86
2018-12-26T02:18:57.225Z,98677.53
2018-12-26T02:21:24.816Z,98671.12
2018-12-26T02:26:26.115Z,98671.14
2018-12-26T02:28:53.687Z,98666.36
2018-12-26T02:31:21.249Z,98668.14
2018-12-26T02:33:48.861Z,98669.82
2018-12-26T02:36:17.217Z,98675.16
2018-12-26T02:38:44.839Z,98669.48
2018-12-26T02:41:12.495Z,98667.78
2018-12-26T02:43:40.517Z,98661.42
2018-12-26T02:46:08.413Z,98662.78
2018-12-26T02:48:35.991Z,98658.07
2018-12-26T02:51:03.991Z,98660.71
2018-12-26T02:53:32.652Z,98656.88
2018-12-26T02:56:00.321Z,98658.11
2018-12-26T02:58:28.715Z,98656.05
2018-12-26T03:00:56.769Z,98660.73
2018-12-26T03:03:24.944Z,98657.30
2018-12-26T03:05:52.692Z,98648.16
2018-12-26T03:08:20.629Z,98648.53
2018-12-26T03:10:48.983Z,98649.44
2018-12-26T03:13:16.631Z,98648.03
2018-12-26T03:15:44.364Z,98643.30
2018-12-26T03:18:11.925Z,98642.47
2018-12-26T03:20:39.764Z,98631.95
2018-12-26T03:23:07.350Z,98637.70
2018-12-26T03:25:35.223Z,98630.73
2018-12-26T03:28:03.063Z,98628.54
2018-12-26T03:30:30.650Z,98628.11
2018-12-26T03:32:58.294Z,98622.00
2018-12-26T03:35:25.993Z,98618.48
2018-12-26T03:37:53.543Z,98624.78
2018-12-26T03:40:21.103Z,98623.56
2018-12-26T03:42:48.796Z,98625.55
2018-12-26T03:45:16.542Z,98619.09
2018-12-26T03:47:44.890Z,98623.34
2018-12-26T03:50:12.497Z,98622.87
2018-12-26T03:52:40.057Z,98627.56
2018-12-26T03:55:07.560Z,98630.66
2018-12-26T03:57:35.145Z,98633.83
2018-12-26T04:00:02.784Z,98621.87
2018-12-26T04:02:30.253Z,98632.25
2018-12-26T04:04:57.767Z,98635.77
2018-12-26T04:07:25.360Z,98631.00
2018-12-26T04:09:52.872Z,98627.51
2018-12-26T04:12:21.147Z,98626.53
2018-12-26T04:14:48.687Z,98628.95
2018-12-26T04:17:16.223Z,98620.31
2018-12-26T04:19:43.677Z,98621.20
2018-12-26T04:22:11.212Z,98623.13
2018-12-26T04:24:38.901Z,98619.31
2018-12-26T04:27:15.306Z,98624.10
2018-12-26T04:29:34.739Z,98619.70
2018-12-26T04:32:02.444Z,98626.11
2018-12-26T04:34:31.703Z,98622.59
2018-12-26T04:36:59.187Z,98614.30
2018-12-26T04:39:26.738Z,98613.93
2018-12-26T04:41:54.346Z,98616.11
2018-12-26T04:44:21.931Z,98616.50
2018-12-26T04:46:49.608Z,98617.44
2018-12-26T04:49:17.287Z,98618.74
2018-12-26T04:51:45.013Z,98625.22
2018-12-26T04:54:12.662Z,98624.48
2018-12-26T04:56:40.180Z,98627.60
2018-12-26T04:59:07.846Z,98622.51
2018-12-26T05:01:35.403Z,98628.92
2018-12-26T05:04:03.530Z,98634.75
2018-12-26T05:06:31.505Z,98631.71
2018-12-26T05:08:59.090Z,98633.05
2018-12-26T05:11:26.621Z,98632.34
2018-12-26T05:13:55.152Z,98624.56
2018-12-26T05:16:23.852Z,98627.92
2018-12-26T05:18:51.595Z,98627.42
2018-12-26T05:21:19.152Z,98627.86
2018-12-26T05:23:47.613Z,98627.75
2018-12-26T05:26:16.150Z,98630.34
2018-12-26T05:28:43.638Z,98634.17
2018-12-26T05:31:11.299Z,98640.19
2018-12-26T05:33:38.823Z,98639.74
2018-12-26T05:36:06.439Z,98640.23
2018-12-26T05:38:34.043Z,98641.20
2018-12-26T05:41:01.588Z,98641.70
2018-12-26T05:43:29.165Z,98642.64
2018-12-26T05:45:56.772Z,98643.81
2018-12-26T05:48:24.312Z,98638.48
2018-12-26T05:50:51.839Z,98646.67
2018-12-26T05:53:19.540Z,98644.83
2018-12-26T05:55:47.117Z,98647.03
2018-12-26T05:58:14.643Z,98644.58
2018-12-26T06:00:42.377Z,98645.00
2018-12-26T06:03:10.310Z,98639.77
2018-12-26T06:05:37.817Z,98644.97
2018-12-26T06:08:05.405Z,98639.34
2018-12-26T06:10:33.057Z,98639.75
2018-12-26T06:13:00.582Z,98642.69
2018-12-26T06:15:28.103Z,98645.57
2018-12-26T06:17:55.622Z,98641.78
2018-12-26T06:20:23.098Z,98645.72
2018-12-26T06:22:50.582Z,98650.03
2018-12-26T06:25:18.136Z,98650.93
2018-12-26T06:27:51.403Z,98647.77
2018-12-26T06:30:13.647Z,98656.00
2018-12-26T06:32:41.113Z,98661.67
2018-12-26T06:35:08.587Z,98660.55
2018-12-26T06:37:36.953Z,98660.63
2018-12-26T06:40:04.495Z,98658.20
2018-12-26T06:42:31.953Z,98655.94
2018-12-26T06:44:59.531Z,98659.40
2018-12-26T06:47:27.692Z,98652.02
2018-12-26T06:49:55.254Z,98658.97
2018-12-26T06:52:22.927Z,98659.71
2018-12-26T06:54:50.605Z,98665.30
2018-12-26T06:57:18.274Z,98664.89
2018-12-26T06:59:46.018Z,98665.79
2018-12-26T07:02:13.547Z,98669.82
2018-12-26T07:04:41.204Z,98674.95
2018-12-26T07:07:09.084Z,98673.55
2018-12-26T07:09:36.564Z,98673.41
2018-12-26T07:12:04.725Z,98669.84
2018-12-26T07:14:32.171Z,98678.95
2018-12-26T07:16:59.699Z,98678.66
2018-12-26T07:19:27.174Z,98679.62
2018-12-26T07:21:54.851Z,98680.52
2018-12-26T07:24:22.386Z,98691.31
2018-12-26T07:26:49.883Z,98695.20
2018-12-26T07:29:17.535Z,98699.49
2018-12-26T07:31:45.089Z,98690.28
2018-12-26T07:34:12.771Z,98698.47
2018-12-26T07:36:40.797Z,98705.41
2018-12-26T07:39:08.549Z,98705.37
2018-12-26T07:41:36.112Z,98708.33
2018-12-26T07:44:03.907Z,98706.58
2018-12-26T07:46:31.417Z,98704.92
2018-12-26T07:48:58.954Z,98713.67
2018-12-26T07:51:26.519Z,98710.16
2018-12-26T07:53:54.398Z,98712.28
2018-12-26T07:56:21.973Z,98709.60
2018-12-26T07:58:49.642Z,98714.42
2018-12-26T08:01:17.239Z,98714.54
2018-12-26T08:03:46.258Z,98712.27
2018-12-26T08:06:13.938Z,98714.88
2018-12-26T08:08:41.514Z,98713.61
2018-12-26T08:11:09.077Z,98711.09
2018-12-26T08:13:36.690Z,98710.56
2018-12-26T08:16:04.250Z,98715.23
2018-12-26T08:18:31.775Z,98714.73
2018-12-26T08:20:59.306Z,98710.00
2018-12-26T08:23:26.852Z,98703.88
2018-12-26T08:25:54.500Z,98706.95
2018-12-26T08:28:26.500Z,98710.40
2018-12-26T08:30:49.773Z,98714.28
2018-12-26T08:33:17.299Z,98706.66
2018-12-26T08:35:45.362Z,98706.41
2018-12-26T08:38:12.882Z,98714.95
2018-12-26T08:40:40.423Z,98712.62
2018-12-26T08:43:08.964Z,98707.41
2018-12-26T08:45:37.225Z,98717.36
2018-12-26T08:48:05.366Z,98709.52
2018-12-26T08:50:33.031Z,98710.30
2018-12-26T08:53:00.485Z,98706.52
2018-12-26T08:55:28.079Z,98705.73
2018-12-26T08:57:55.592Z,98709.26
2018-12-26T09:00:23.780Z,98707.09
2018-12-26T09:02:52.143Z,98710.46
2018-12-26T09:05:20.481Z,98715.58
2018-12-26T09:07:48.039Z,98714.58
2018-12-26T09:10:16.518Z,98707.23
2018-12-26T09:12:44.026Z,98716.78
2018-12-26T09:15:11.556Z,98713.20
2018-12-26T09:17:39.291Z,98715.83
2018-12-26T09:20:07.373Z,98716.77
2018-12-26T09:22:34.755Z,98715.11
2018-12-26T09:25:02.245Z,98715.16
2018-12-26T09:27:29.707Z,98722.05
2018-12-26T09:29:57.315Z,98713.14
2018-12-26T09:32:24.970Z,98717.36
2018-12-26T09:34:52.606Z,98717.98
2018-12-26T09:37:20.179Z,98714.14
2018-12-26T09:39:48.736Z,98718.38
2018-12-26T09:42:16.278Z,98718.54
2018-12-26T09:44:44.551Z,98717.77
2018-12-26T09:47:13.351Z,98718.89
2018-12-26T09:49:41.006Z,98716.06
2018-12-26T09:52:08.866Z,98710.86
2018-12-26T09:54:36.604Z,98709.09
2018-12-26T09:57:04.273Z,98703.41
2018-12-26T09:59:31.751Z,98701.53
2018-12-26T10:01:59.430Z,98706.02
2018-12-26T10:04:27.145Z,98697.52
2018-12-26T10:06:55.477Z,98693.51
2018-12-26T10:09:25.030Z,98692.77
2018-12-26T10:11:53.913Z,98691.73
2018-12-26T10:14:21.961Z,98692.58
2018-12-26T10:16:49.587Z,98686.92
2018-12-26T10:19:17.240Z,98683.57
2018-12-26T10:21:46.322Z,98680.41
2018-12-26T10:24:14.068Z,98679.45
2018-12-26T10:26:41.757Z,98682.91
2018-12-26T10:29:09.721Z,98679.28
2018-12-26T10:31:38.298Z,98682.25
2018-12-26T10:34:06.145Z,98679.69
2018-12-26T10:36:36.517Z,98684.42
2018-12-26T10:39:05.534Z,98678.95
2018-12-26T10:41:34.583Z,98677.97
2018-12-26T10:44:04.442Z,98673.41
2018-12-26T10:46:34.168Z,98674.39
2018-12-26T10:49:01.853Z,98668.88
2018-12-26T10:51:30.369Z,98663.56
2018-12-26T10:53:58.812Z,98666.57
2018-12-26T10:56:26.417Z,98657.27
2018-12-26T10:58:54.830Z,98651.34
2018-12-26T11:01:22.345Z,98652.70
2018-12-26T11:03:50.001Z,98648.23
2018-12-26T11:06:18.288Z,98648.22
2018-12-26T11:08:45.857Z,98647.30
2018-12-26T11:11:13.313Z,98642.71
2018-12-26T11:13:40.901Z,98639.97
2018-12-26T11:16:08.521Z,98637.69
2018-12-26T11:18:36.287Z,98633.11
2018-12-26T11:21:04.067Z,98634.66
2018-12-26T11:23:31.741Z,98627.10
2018-12-26T11:25:59.486Z,98623.27
2018-12-26T11:28:27.113Z,98619.86
2018-12-26T11:30:55.117Z,98620.98
2018-12-26T11:33:22.775Z,98615.13
2018-12-26T11:35:50.594Z,98621.16
2018-12-26T11:38:18.875Z,98620.16
2018-12-26T11:40:47.247Z,98615.69
2018-12-26T11:43:14.965Z,98615.22
2018-12-26T11:45:43.156Z,98600.66
2018-12-26T11:48:13.864Z,98606.48
2018-12-26T11:50:42.191Z,98606.33
2018-12-26T11:53:09.736Z,98600.78
2018-12-26T11:55:37.222Z,98604.75
2018-12-26T11:58:04.837Z,98597.75
2018-12-26T12:00:33.258Z,98603.69
2018-12-26T12:03:01.348Z,98602.59
2018-12-26T12:05:28.907Z,98598.27
2018-12-26T12:07:56.388Z,98593.29
2018-12-26T12:10:24.213Z,98588.73
2018-12-26T12:12:51.676Z,98599.33
2018-12-26T12:15:19.170Z,98587.30
2018-12-26T12:17:46.836Z,98588.43
2018-12-26T12:20:14.600Z,98586.07
2018-12-26T12:22:42.064Z,98584.19
2018-12-26T12:25:10.025Z,98579.19
2018-12-26T12:27:37.529Z,98572.97
2018-12-26T12:30:05.341Z,98564.22
2018-12-26T12:32:34.642Z,98568.31
2018-12-26T12:35:02.193Z,98573.95
2018-12-26T12:37:29.787Z,98572.69
2018-12-26T12:39:57.927Z,98566.97
2018-12-26T12:42:26.593Z,98568.22
2018-12-26T12:44:54.102Z,98572.02
2018-12-26T12:49:55.419Z,98566.52
2018-12-26T12:52:22.890Z,98566.25
2018-12-26T12:54:50.520Z,98565.56
2018-12-26T12:57:18.056Z,98562.28
2018-12-26T12:59:45.646Z,98555.68
2018-12-26T13:02:13.162Z,98555.34
2018-12-26T13:04:40.988Z,98549.62
2018-12-26T13:07:07.993Z,98548.28
2018-12-26T13:09:35.106Z,98539.18
2018-12-26T13:12:02.157Z,98531.86
2018-12-26T13:14:29.169Z,98533.37
2018-12-26T13:16:56.233Z,98533.78
2018-12-26T13:19:23.345Z,98538.16
2018-12-26T13:21:50.394Z,98525.73
2018-12-26T13:24:17.454Z,98530.59
2018-12-26T13:26:44.509Z,98523.13
2018-12-26T13:29:11.904Z,98525.45
2018-12-26T13:31:38.981Z,98520.09
2018-12-26T13:34:05.978Z,98533.47
2018-12-26T13:36:33.488Z,98535.18
2018-12-26T13:39:00.597Z,98538.86
2018-12-26T13:41:27.581Z,98536.17
2018-12-26T13:43:57.327Z,98535.67
2018-12-26T13:46:24.572Z,98534.48
2018-12-26T13:48:52.701Z,98536.70
2018-12-26T13:51:20.675Z,98533.02
2018-12-26T13:53:47.788Z,98537.78
2018-12-26T13:56:15.647Z,98534.56
2018-12-26T13:58:43.557Z,98534.73
2018-12-26T14:01:11.854Z,98533.16
2018-12-26T14:03:39.410Z,98532.97
2018-12-26T14:06:07.532Z,98537.29
2018-12-26T14:08:35.356Z,98535.78
2018-12-26T14:11:02.853Z,98532.80
2018-12-26T14:13:31.571Z,98538.83
2018-12-26T14:15:59.129Z,98535.43
2018-12-26T14:18:27.439Z,98533.95
2018-12-26T14:20:54.931Z,98533.78
2018-12-26T14:23:22.469Z,98527.92
2018-12-26T14:25:50.165Z,98522.31
2018-12-26T14:28:17.789Z,98523.78
2018-12-26T14:30:45.376Z,98526.59
2018-12-26T14:33:13.509Z,98522.23
2018-12-26T14:35:42.070Z,98520.12
2018-12-26T14:38:10.054Z,98516.36
2018-12-26T14:40:37.523Z,98513.59
2018-12-26T14:43:07.905Z,98513.45
2018-12-26T14:45:35.075Z,98514.68
2018-12-26T14:48:02.156Z,98517.70
2018-12-26T14:50:29.266Z,98505.01
2018-12-26T14:52:57.199Z,98501.20
2018-12-26T14:55:24.560Z,98508.06
2018-12-26T14:57:51.599Z,98503.88
2018-12-26T15:00:20.365Z,98501.41
2018-12-26T15:02:47.516Z,98503.05
2018-12-26T15:05:14.725Z,98504.75
2018-12-26T15:07:41.871Z,98504.30
2018-12-26T15:10:09.211Z,98502.84
2018-12-26T15:12:38.243Z,98507.07
2018-12-26T15:15:05.494Z,98502.37
2018-12-26T15:17:32.620Z,98504.83
2018-12-26T15:19:59.696Z,98497.78
2018-12-26T15:22:26.966Z,98498.22
2018-12-26T15:24:53.978Z,98501.09
2018-12-26T15:27:21.298Z,98498.34
2018-12-26T15:29:48.398Z,98498.35
2018-12-26T15:32:15.541Z,98503.11
2018-12-26T15:34:42.540Z,98502.91
2018-12-26T15:37:10.936Z,98497.66
2018-12-26T15:39:38.294Z,98499.42
2018-12-26T15:42:06.685Z,98495.11
2018-12-26T15:44:34.565Z,98496.08
2018-12-26T15:47:02.223Z,98499.77
2018-12-26T15:49:29.777Z,98501.31
2018-12-26T15:51:57.305Z,98491.89
2018-12-26T15:54:24.756Z,98496.77
2018-12-26T15:56:53.008Z,98501.59
2018-12-26T15:59:20.481Z,98499.09
2018-12-26T16:01:48.023Z,98499.97
2018-12-26T16:04:15.603Z,98500.43
2018-12-26T16:06:43.184Z,98504.41
2018-12-26T16:09:10.696Z,98505.69
2018-12-26T16:11:38.330Z,98497.42
2018-12-26T16:14:05.812Z,98501.27
2018-12-26T16:16:33.893Z,98490.84
2018-12-26T16:19:01.785Z,98491.29
2018-12-26T16:21:29.364Z,98491.34
2018-12-26T16:23:56.889Z,98490.39
2018-12-26T16:26:24.372Z,98492.61
2018-12-26T16:28:52.747Z,98503.02
2018-12-26T16:31:20.359Z,98499.06
2018-12-26T16:33:48.325Z,98500.39
2018-12-26T16:36:15.934Z,98503.89
2018-12-26T16:38:43.456Z,98501.70
2018-12-26T16:41:11.002Z,98496.00
2018-12-26T16:43:38.514Z,98496.83
2018-12-26T16:46:05.977Z,98503.30
2018-12-26T16:48:33.530Z,98499.80
2018-12-26T16:51:01.096Z,98507.59
2018-12-26T16:53:28.636Z,98502.73
2018-12-26T16:55:56.262Z,98506.11
2018-12-26T16:58:23.801Z,98505.22
2018-12-26T17:00:55.115Z,98501.70
2018-12-26T17:03:18.965Z,98507.72
2018-12-26T17:05:46.602Z,98505.64
2018-12-26T17:08:14.265Z,98503.86
2018-12-26T17:10:41.755Z,98504.70
2018-12-26T17:13:09.259Z,98506.83
2018-12-26T17:15:38.165Z,98501.24
2018-12-26T17:18:05.799Z,98499.01
2018-12-26T17:20:33.381Z,98505.53
2018-12-26T17:23:03.034Z,98509.47
2018-12-26T17:25:30.663Z,98508.75
2018-12-26T17:27:58.246Z,98504.44
2018-12-26T17:30:25.878Z,98512.09
2018-12-26T17:33:00.500Z,98505.92
2018-12-26T17:35:22.765Z,98513.32
2018-12-26T17:37:51.295Z,98511.75
2018-12-26T17:40:18.751Z,98518.38
2018-12-26T17:42:46.326Z,98516.20
2018-12-26T17:45:15.274Z,98516.05
2018-12-26T17:47:42.905Z,98518.58
2018-12-26T17:50:22.037Z,98512.05
2018-12-26T17:52:49.581Z,98524.66
2018-12-26T17:55:18.898Z,98520.38
2018-12-26T17:57:46.460Z,98520.38
2018-12-26T18:00:14.018Z,98524.70
2018-12-26T18:02:42.369Z,98525.48
2018-12-26T18:05:09.888Z,98521.70
2018-12-26T18:07:37.721Z,98523.50
2018-12-26T18:10:05.644Z,98527.32
2018-12-26T18:12:34.474Z,98527.70
2018-12-26T18:15:02.248Z,98520.44
2018-12-26T18:17:29.884Z,98527.76
2018-12-26T18:19:58.198Z,98522.92
2018-12-26T18:22:30.712Z,98525.95
2018-12-26T18:25:00.322Z,98527.22
2018-12-26T18:27:27.306Z,98528.59
2018-12-26T18:29:55.095Z,98528.20
2018-12-26T18:32:23.844Z,98523.55
2018-12-26T18:34:51.408Z,98525.78
2018-12-26T18:37:19.024Z,98528.37
2018-12-26T18:39:46.654Z,98521.31
2018-12-26T18:42:14.314Z,98530.48
2018-12-26T18:44:41.880Z,98530.05
2018-12-26T18:47:09.634Z,98519.15
2018-12-26T18:49:38.225Z,98523.03
2018-12-26T18:52:05.991Z,98528.11
2018-12-26T18:54:33.700Z,98526.92
2018-12-26T18:57:01.482Z,98524.45
2018-12-26T18:59:29.014Z,98530.94
2018-12-26T19:01:56.515Z,98527.83
2018-12-26T19:04:24.155Z,98532.16
2018-12-26T19:06:51.889Z,98532.58
2018-12-26T19:09:19.342Z,98523.49
2018-12-26T19:11:46.808Z,98527.42
2018-12-26T19:14:15.300Z,98522.19
2018-12-26T19:16:42.806Z,98524.35
2018-12-26T19:19:10.309Z,98523.92
2018-12-26T19:21:38.848Z,98528.79
2018-12-26T19:24:06.321Z,98531.03
2018-12-26T19:26:33.798Z,98527.58
2018-12-26T19:29:01.946Z,98527.59
2018-12-26T19:31:29.735Z,98531.03
2018-12-26T19:33:57.265Z,98526.21
2018-12-26T19:36:26.425Z,98519.76
2018-12-26T19:38:54.112Z,98524.06
2018-12-26T19:41:21.663Z,98525.80
2018-12-26T19:43:49.307Z,98524.19
2018-12-26T19:46:17.877Z,98521.61
2018-12-26T19:48:45.516Z,98517.61
2018-12-26T19:51:13.156Z,98517.96
2018-12-26T19:53:40.918Z,98508.89
2018-12-26T19:56:09.358Z,98506.87
2018-12-26T19:58:36.844Z,98510.64
2018-12-26T20:01:04.749Z,98505.92
2018-12-26T20:03:32.425Z,98504.27
2018-12-26T20:06:00.046Z,98504.73
2018-12-26T20:08:27.686Z,98504.37
2018-12-26T20:10:56.439Z,98504.41
2018-12-26T20:13:22.302Z,98502.23
2018-12-26T20:15:50.135Z,98497.48
2018-12-26T20:18:18.864Z,98497.54
2018-12-26T20:20:46.426Z,98499.73
2018-12-26T20:23:14.176Z,98499.31
2018-12-26T20:25:41.751Z,98501.91
2018-12-26T20:28:09.367Z,98498.00
2018-12-26T20:30:36.965Z,98493.73
2018-12-26T20:33:04.566Z,98496.80
2018-12-26T20:35:32.163Z,98495.94
2018-12-26T20:37:59.689Z,98498.23
2018-12-26T20:40:27.253Z,98487.80
2018-12-26T20:42:54.809Z,98488.66
2018-12-26T20:45:25.124Z,98482.11
2018-12-26T20:47:53.644Z,98493.80
2018-12-26T20:50:21.165Z,98481.41
2018-12-26T20:52:48.763Z,98481.98
2018-12-26T20:55:16.361Z,98484.45
2018-12-26T20:57:43.994Z,98486.25
2018-12-26T21:00:11.702Z,98483.45
2018-12-26T21:02:39.195Z,98481.56
2018-12-26T21:05:07.118Z,98485.10
2018-12-26T21:07:34.698Z,98480.47
2018-12-26T21:10:02.211Z,98480.06
2018-12-26T21:12:29.660Z,98476.89
2018-12-26T21:14:57.139Z,98469.39
2018-12-26T21:17:24.672Z,98461.67
2018-12-26T21:19:52.249Z,98466.88
2018-12-26T21:22:19.857Z,98460.40
2018-12-26T21:24:51.135Z,98461.20
2018-12-26T21:27:18.923Z,98453.33
2018-12-26T21:29:46.533Z,98451.96
2018-12-26T21:32:15.365Z,98452.78
2018-12-26T21:34:43.056Z,98450.94
2018-12-26T21:37:10.572Z,98449.31
2018-12-26T21:39:38.333Z,98448.55
2018-12-26T21:42:05.832Z,98440.88
2018-12-26T21:44:34.745Z,98445.61
2018-12-26T21:47:02.472Z,98439.95
2018-12-26T21:49:30.071Z,98442.08
2018-12-26T21:51:58.527Z,98441.13
2018-12-26T21:54:26.082Z,98447.98
2018-12-26T21:56:53.735Z,98435.81
2018-12-26T21:59:21.496Z,98434.38
2018-12-26T22:01:50.026Z,98432.95
2018-12-26T22:04:20.538Z,98438.99
2018-12-26T22:06:48.135Z,98426.59
2018-12-26T22:09:18.791Z,98426.19
2018-12-26T22:11:46.502Z,98421.55
2018-12-26T22:14:14.302Z,98423.67
2018-12-26T22:16:41.946Z,98414.28
2018-12-26T22:19:10.495Z,98419.37
2018-12-26T22:21:38.408Z,98422.33
2018-12-26T22:24:05.922Z,98417.13
2018-12-26T22:26:34.302Z,98415.27
2018-12-26T22:29:03.602Z,98417.41
2018-12-26T22:31:33.234Z,98413.17
2018-12-26T22:34:00.741Z,98413.86
2018-12-26T22:36:28.446Z,98415.56
2018-12-26T22:38:55.943Z,98419.78
2018-12-26T22:41:23.708Z,98421.09
2018-12-26T22:43:51.203Z,98424.13
2018-12-26T22:46:21.672Z,98414.20
2018-12-26T22:48:49.278Z,98420.87
2018-12-26T22:51:17.965Z,98417.91
2018-12-26T22:53:45.518Z,98415.25
2018-12-26T22:56:13.207Z,98413.91
2018-12-26T22:58:40.747Z,98406.90
2018-12-26T23:01:08.735Z,98408.34
2018-12-26T23:03:36.627Z,98403.56
2018-12-26T23:06:04.336Z,98399.48
2018-12-26T23:08:31.906Z,98399.44
2018-12-26T23:10:59.404Z,98404.58
2018-12-26T23:13:28.824Z,98400.77
2018-12-26T23:15:56.963Z,98393.96
2018-12-26T23:18:24.414Z,98393.66
2018-12-26T23:20:52.017Z,98391.11
2018-12-26T23:23:19.461Z,98395.91
2018-12-26T23:25:47.166Z,98393.73
2018-12-26T23:28:14.727Z,98391.71
2018-12-26T23:30:42.236Z,98393.08
2018-12-26T23:33:10.057Z,98385.65
2018-12-26T23:35:39.411Z,98392.07
2018-12-26T23:38:06.889Z,98389.08
2018-12-26T23:40:34.478Z,98385.64
2018-12-26T23:43:02.067Z,98390.38
2018-12-26T23:45:30.411Z,98382.12
2018-12-26T23:47:59.064Z,98375.55
2018-12-26T23:50:28.131Z,98374.66
2018-12-26T23:52:55.855Z,98371.27
2018-12-26T23:55:23.388Z,98367.21
2018-12-26T23:57:52.044Z,98376.60
